createdAt,value
2022-07-29T00:01:43.133Z,2.00
2022-07-29T00:04:12.668Z,2.63
2022-07-29T00:06:41.114Z,2.30
2022-07-29T00:09:09.152Z,1.97
2022-07-29T00:11:37.034Z,1.83
2022-07-29T00:14:05.111Z,2.07
2022-07-29T00:16:32.997Z,2.30
2022-07-29T00:19:02.476Z,1.80
2022-07-29T00:21:31.928Z,2.47
2022-07-29T00:23:59.904Z,2.53
2022-07-29T00:26:32.439Z,2.30
2022-07-29T00:29:31.988Z,1.70
2022-07-29T00:31:49.021Z,2.40
2022-07-29T00:34:30.855Z,1.87
2022-07-29T00:37:00.120Z,2.40
2022-07-29T00:39:28.021Z,2.10
2022-07-29T00:41:56.876Z,2.10
2022-07-29T00:44:24.702Z,1.93
2022-07-29T00:46:52.547Z,2.30
2022-07-29T00:49:20.410Z,2.00
2022-07-29T00:51:49.681Z,2.60
2022-07-29T00:54:19.403Z,2.10
2022-07-29T00:56:47.336Z,2.20
2022-07-29T00:59:15.099Z,1.90
2022-07-29T01:01:42.922Z,2.40
2022-07-29T01:04:10.769Z,2.20
2022-07-29T01:06:38.882Z,2.20
2022-07-29T01:09:07.663Z,2.03
2022-07-29T01:11:37.702Z,2.40
2022-07-29T01:14:07.220Z,2.40
2022-07-29T01:16:41.282Z,1.80
2022-07-29T01:19:18.743Z,2.50
2022-07-29T01:21:53.950Z,2.20
2022-07-29T01:24:53.745Z,1.77
2022-07-29T01:27:37.842Z,1.90
2022-07-29T01:30:09.822Z,2.27
2022-07-29T01:32:40.038Z,2.40
2022-07-29T01:35:17.631Z,2.50
2022-07-29T01:37:49.077Z,2.30
2022-07-29T01:40:24.090Z,2.37
2022-07-29T01:42:56.350Z,2.50
2022-07-29T01:45:30.485Z,2.40
2022-07-29T01:48:02.496Z,2.60
2022-07-29T01:50:36.432Z,2.43
2022-07-29T01:53:08.381Z,2.00
2022-07-29T01:55:40.670Z,2.20
2022-07-29T01:58:09.758Z,2.23
2022-07-29T02:00:41.102Z,2.40
2022-07-29T02:03:13.782Z,2.40
2022-07-29T02:05:44.372Z,2.40
2022-07-29T02:08:14.203Z,2.30
2022-07-29T02:10:44.280Z,2.50
2022-07-29T02:13:14.642Z,2.80
2022-07-29T02:15:45.736Z,2.27
2022-07-29T02:18:18.447Z,2.63
2022-07-29T02:20:49.358Z,2.80
2022-07-29T02:23:20.804Z,2.27
2022-07-29T02:25:51.262Z,2.10
2022-07-29T02:28:22.286Z,2.50
2022-07-29T02:30:54.417Z,2.13
2022-07-29T02:33:25.332Z,1.90
2022-07-29T02:35:54.118Z,3.13
2022-07-29T02:38:41.325Z,1.80
2022-07-29T02:41:13.292Z,2.07
2022-07-29T02:43:42.829Z,2.17
2022-07-29T02:46:29.377Z,2.50
2022-07-29T02:49:01.603Z,2.30
2022-07-29T02:51:43.626Z,2.10
2022-07-29T02:54:16.669Z,2.27
2022-07-29T02:56:47.476Z,2.63
2022-07-29T02:59:21.982Z,2.23
2022-07-29T03:01:52.322Z,2.20
2022-07-29T03:04:22.285Z,2.30
2022-07-29T03:06:51.751Z,2.23
2022-07-29T03:09:20.455Z,2.13
2022-07-29T03:11:49.719Z,2.27
2022-07-29T03:14:21.226Z,2.00
2022-07-29T03:16:51.843Z,2.30
2022-07-29T03:19:21.082Z,2.30
2022-07-29T03:21:49.109Z,2.33
2022-07-29T03:24:31.521Z,2.13
2022-07-29T03:27:00.604Z,2.30
2022-07-29T03:29:33.008Z,1.90
2022-07-29T03:32:07.294Z,2.00
2022-07-29T03:34:36.915Z,2.03
2022-07-29T03:37:04.983Z,2.50
2022-07-29T03:39:37.183Z,2.00
2022-07-29T03:42:08.866Z,2.00
2022-07-29T03:44:38.207Z,2.43
2022-07-29T03:47:10.103Z,2.23
2022-07-29T03:49:39.618Z,2.37
2022-07-29T03:52:08.123Z,1.80
2022-07-29T03:54:36.339Z,2.23
2022-07-29T03:57:05.525Z,3.20
2022-07-29T03:59:35.710Z,2.67
2022-07-29T04:02:05.531Z,2.40
2022-07-29T04:04:37.115Z,2.20
2022-07-29T04:07:05.728Z,1.73
2022-07-29T04:09:34.042Z,2.27
2022-07-29T04:12:04.362Z,2.00
2022-07-29T04:14:33.182Z,2.50
2022-07-29T04:17:01.532Z,1.97
2022-07-29T04:19:29.459Z,2.50
2022-07-29T04:21:59.350Z,2.47
2022-07-29T04:24:27.936Z,2.30
2022-07-29T04:26:56.116Z,2.40
2022-07-29T04:29:24.598Z,2.50
2022-07-29T04:31:52.418Z,2.20
2022-07-29T04:34:21.239Z,2.57
2022-07-29T04:36:49.265Z,2.53
2022-07-29T04:39:22.968Z,2.27
2022-07-29T04:41:52.586Z,2.10
2022-07-29T04:44:28.631Z,2.37
2022-07-29T04:46:57.657Z,2.10
2022-07-29T04:49:26.303Z,2.07
2022-07-29T04:51:54.319Z,2.70
2022-07-29T04:54:23.710Z,2.40
2022-07-29T04:56:52.826Z,2.37
2022-07-29T04:59:20.774Z,2.20
2022-07-29T05:01:48.806Z,2.00
2022-07-29T05:04:17.102Z,2.10
2022-07-29T05:06:47.683Z,2.40
2022-07-29T05:09:15.551Z,1.80
2022-07-29T05:11:47.557Z,2.80
2022-07-29T05:14:15.725Z,3.07
2022-07-29T05:16:44.376Z,2.10
2022-07-29T05:19:14.404Z,2.40
2022-07-29T05:21:42.953Z,2.13
2022-07-29T05:24:10.843Z,3.05
2022-07-29T05:26:38.889Z,2.25
2022-07-29T05:29:43.282Z,2.70
2022-07-29T05:32:01.481Z,2.55
2022-07-29T05:34:29.344Z,2.60
2022-07-29T05:37:00.447Z,2.30
2022-07-29T05:39:47.311Z,2.92
2022-07-29T05:42:16.174Z,2.67
2022-07-29T05:44:45.556Z,2.53
2022-07-29T05:47:13.744Z,2.85
2022-07-29T05:49:41.610Z,2.42
2022-07-29T05:52:09.931Z,2.05
2022-07-29T05:54:38.077Z,2.58
2022-07-29T05:57:06.321Z,2.58
2022-07-29T05:59:37.789Z,2.50
2022-07-29T06:02:07.172Z,2.30
2022-07-29T06:04:35.549Z,3.00
2022-07-29T06:07:03.593Z,2.25
2022-07-29T06:09:31.828Z,3.20
2022-07-29T06:11:59.934Z,2.67
2022-07-29T06:14:29.350Z,2.72
2022-07-29T06:16:57.740Z,2.70
2022-07-29T06:19:31.761Z,2.70
2022-07-29T06:21:59.736Z,2.60
2022-07-29T06:24:28.161Z,2.65
2022-07-29T06:26:56.941Z,2.03
2022-07-29T06:29:25.493Z,2.40
2022-07-29T06:31:53.774Z,2.10
2022-07-29T06:34:21.722Z,2.70
2022-07-29T06:36:52.223Z,2.42
2022-07-29T06:39:30.233Z,2.55
2022-07-29T06:41:58.173Z,2.85
2022-07-29T06:44:26.445Z,2.60
2022-07-29T06:46:55.832Z,2.30
2022-07-29T06:49:25.316Z,2.58
2022-07-29T06:51:55.079Z,2.70
2022-07-29T06:54:23.566Z,2.20
2022-07-29T06:56:51.367Z,2.83
2022-07-29T06:59:20.581Z,2.50
2022-07-29T07:01:52.785Z,2.35
2022-07-29T07:04:21.389Z,2.70
2022-07-29T07:06:49.334Z,2.42
2022-07-29T07:09:18.724Z,2.50
2022-07-29T07:11:46.650Z,2.60
2022-07-29T07:14:17.960Z,2.85
2022-07-29T07:16:45.988Z,2.50
2022-07-29T07:19:14.084Z,2.53
2022-07-29T07:21:42.092Z,2.72
2022-07-29T07:24:10.871Z,2.47
2022-07-29T07:26:40.971Z,2.22
2022-07-29T07:29:08.940Z,2.50
2022-07-29T07:31:38.420Z,2.85
2022-07-29T07:34:06.542Z,2.95
2022-07-29T07:36:34.838Z,3.00
2022-07-29T07:39:03.377Z,3.17
2022-07-29T07:41:32.584Z,3.13
2022-07-29T07:44:02.116Z,3.38
2022-07-29T07:46:29.976Z,2.60
2022-07-29T07:48:57.797Z,2.78
2022-07-29T07:51:25.698Z,2.58
2022-07-29T07:53:53.606Z,2.97
2022-07-29T07:56:21.799Z,2.80
2022-07-29T07:58:50.649Z,2.78
2022-07-29T08:01:22.317Z,2.83
2022-07-29T08:03:51.809Z,3.60
2022-07-29T08:06:19.905Z,3.55
2022-07-29T08:08:47.742Z,3.47
2022-07-29T08:11:15.556Z,2.50
2022-07-29T08:13:44.176Z,3.10
2022-07-29T08:16:16.188Z,3.10
2022-07-29T08:18:47.348Z,2.75
2022-07-29T08:21:15.902Z,2.65
2022-07-29T08:23:59.648Z,3.10
2022-07-29T08:26:30.199Z,3.13
2022-07-29T08:28:59.228Z,2.88
2022-07-29T08:31:27.307Z,2.80
2022-07-29T08:34:01.876Z,2.40
2022-07-29T08:36:31.242Z,2.38
2022-07-29T08:39:03.752Z,2.60
2022-07-29T08:41:33.159Z,3.00
2022-07-29T08:44:01.847Z,2.80
2022-07-29T08:46:32.028Z,2.72
2022-07-29T08:49:02.137Z,2.92
2022-07-29T08:51:30.258Z,2.72
2022-07-29T08:53:58.417Z,2.80
2022-07-29T08:56:26.818Z,3.25
2022-07-29T08:58:54.949Z,2.78
2022-07-29T09:01:36.321Z,3.08
2022-07-29T09:04:13.824Z,2.83
2022-07-29T09:06:46.373Z,3.00
2022-07-29T09:09:15.721Z,3.17
2022-07-29T09:11:44.448Z,3.20
2022-07-29T09:14:14.670Z,3.15
2022-07-29T09:17:03.826Z,2.72
2022-07-29T09:19:35.749Z,2.63
2022-07-29T09:22:07.170Z,3.10
2022-07-29T09:24:46.141Z,3.42
2022-07-29T09:27:24.589Z,3.10
2022-07-29T09:29:59.972Z,3.05
2022-07-29T09:32:28.305Z,3.08
2022-07-29T09:35:19.076Z,3.25
2022-07-29T09:37:47.694Z,3.42
2022-07-29T09:40:17.812Z,2.80
2022-07-29T09:42:48.723Z,4.30
2022-07-29T09:45:31.010Z,2.97
2022-07-29T09:48:04.049Z,3.15
2022-07-29T09:50:42.239Z,3.70
2022-07-29T09:53:12.967Z,2.85
2022-07-29T09:56:00.675Z,3.30
2022-07-29T09:58:28.770Z,2.92
2022-07-29T10:00:57.816Z,2.70
2022-07-29T10:03:26.174Z,3.40
2022-07-29T10:06:18.322Z,3.53
2022-07-29T10:08:46.279Z,2.85
2022-07-29T10:11:18.546Z,3.10
2022-07-29T10:13:48.496Z,2.95
2022-07-29T10:16:17.527Z,3.67
2022-07-29T10:18:47.782Z,3.55
2022-07-29T10:21:35.344Z,2.90
2022-07-29T10:24:04.390Z,3.28
2022-07-29T10:26:32.768Z,3.63
2022-07-29T10:29:01.433Z,3.13
2022-07-29T10:31:36.375Z,3.10
2022-07-29T10:34:10.797Z,3.03
2022-07-29T10:36:51.617Z,3.60
2022-07-29T10:39:44.695Z,3.55
2022-07-29T10:42:29.728Z,2.92
2022-07-29T10:45:04.361Z,3.13
2022-07-29T10:47:35.432Z,2.67
2022-07-29T10:50:05.321Z,2.72
2022-07-29T10:52:58.652Z,2.95
2022-07-29T10:55:35.721Z,3.55
2022-07-29T10:58:15.407Z,3.13
2022-07-29T11:00:46.813Z,3.15
2022-07-29T11:03:49.185Z,3.70
2022-07-29T11:06:27.024Z,3.20
2022-07-29T11:09:34.962Z,2.97
2022-07-29T11:12:06.737Z,3.28
2022-07-29T11:15:16.442Z,3.10
2022-07-29T11:18:06.014Z,3.30
2022-07-29T11:20:39.259Z,3.28
2022-07-29T11:23:33.904Z,3.28
2022-07-29T11:26:24.892Z,3.75
2022-07-29T11:28:56.853Z,3.08
2022-07-29T11:31:39.156Z,3.28
2022-07-29T11:34:29.790Z,4.25
2022-07-29T11:37:18.658Z,3.60
2022-07-29T11:39:49.163Z,3.40
2022-07-29T11:42:42.056Z,3.53
2022-07-29T11:48:29.335Z,3.08
2022-07-29T11:50:52.092Z,2.90
2022-07-29T11:53:20.408Z,3.30
2022-07-29T11:55:56.313Z,3.40
2022-07-29T11:58:29.340Z,3.92
2022-07-29T12:01:04.512Z,3.83
2022-07-29T12:03:35.954Z,19.05
2022-07-29T12:06:13.103Z,3.72
2022-07-29T12:08:44.456Z,3.83
2022-07-29T12:11:20.497Z,3.60
2022-07-29T12:13:50.917Z,3.38
2022-07-29T12:16:26.006Z,3.70
2022-07-29T12:19:02.488Z,3.53
2022-07-29T12:21:31.557Z,3.40
2022-07-29T12:24:08.826Z,3.38
2022-07-29T12:26:37.983Z,3.50
2022-07-29T12:29:20.325Z,4.00
2022-07-29T12:32:03.588Z,3.70
2022-07-29T12:34:32.173Z,3.75
2022-07-29T12:37:00.555Z,3.50
2022-07-29T12:39:29.170Z,3.85
2022-07-29T12:42:04.401Z,3.95
2022-07-29T12:44:50.892Z,3.47
2022-07-29T12:47:20.124Z,3.60
2022-07-29T12:49:48.793Z,4.10
2022-07-29T12:52:26.978Z,3.97
2022-07-29T12:54:54.951Z,3.90
2022-07-29T12:57:23.170Z,3.60
2022-07-29T13:00:03.977Z,4.07
2022-07-29T13:02:32.030Z,3.30
2022-07-29T13:05:01.856Z,3.38
2022-07-29T13:07:54.558Z,3.35
2022-07-29T13:10:24.410Z,3.72
2022-07-29T13:13:11.536Z,3.40
2022-07-29T13:15:42.047Z,3.30
2022-07-29T13:18:31.321Z,3.88
2022-07-29T13:21:11.942Z,4.32
2022-07-29T13:23:40.279Z,4.07
2022-07-29T13:26:08.834Z,3.75
2022-07-29T13:28:37.381Z,3.67
2022-07-29T13:31:07.283Z,4.20
2022-07-29T13:33:35.296Z,2.38
2022-07-29T13:36:03.347Z,2.22
2022-07-29T13:38:31.488Z,2.67
2022-07-29T13:40:59.778Z,3.10
2022-07-29T13:43:27.763Z,3.00
2022-07-29T13:45:55.715Z,2.67
2022-07-29T13:48:25.063Z,2.80
2022-07-29T13:50:53.001Z,2.28
2022-07-29T13:53:27.136Z,2.05
2022-07-29T13:55:55.785Z,2.40
2022-07-29T13:58:23.802Z,2.05
2022-07-29T14:00:51.813Z,3.10
2022-07-29T14:03:19.857Z,2.00
2022-07-29T14:05:49.140Z,1.85
2022-07-29T14:08:17.113Z,2.08
2022-07-29T14:10:44.989Z,2.92
2022-07-29T14:13:24.299Z,1.70
2022-07-29T14:15:52.772Z,2.17
2022-07-29T14:18:20.933Z,1.95
2022-07-29T14:20:50.522Z,2.20
2022-07-29T14:23:18.489Z,2.92
2022-07-29T14:25:49.455Z,3.20
2022-07-29T14:28:17.891Z,2.80
2022-07-29T14:30:45.855Z,2.78
2022-07-29T14:33:13.811Z,2.65
2022-07-29T14:35:42.750Z,3.15
2022-07-29T14:38:12.075Z,2.78
2022-07-29T14:40:40.427Z,3.20
2022-07-29T14:43:08.389Z,3.08
2022-07-29T14:45:36.354Z,2.85
2022-07-29T14:48:04.408Z,2.80
2022-07-29T14:50:32.425Z,3.47
2022-07-29T14:53:00.377Z,3.80
2022-07-29T14:55:33.217Z,2.95
2022-07-29T14:58:08.958Z,2.75
2022-07-29T15:00:39.144Z,2.63
2022-07-29T15:03:11.326Z,3.20
2022-07-29T15:05:39.709Z,3.00
2022-07-29T15:08:09.038Z,2.85
2022-07-29T15:10:38.733Z,3.22
2022-07-29T15:13:06.712Z,3.00
2022-07-29T15:15:34.789Z,3.03
2022-07-29T15:18:02.723Z,3.50
2022-07-29T15:20:30.643Z,3.25
2022-07-29T15:22:58.669Z,3.00
2022-07-29T15:25:28.351Z,3.05
2022-07-29T15:28:01.178Z,2.70
2022-07-29T15:30:34.041Z,2.88
2022-07-29T15:33:03.357Z,3.38
2022-07-29T15:35:31.310Z,3.60
2022-07-29T15:37:59.373Z,2.90
2022-07-29T15:40:27.590Z,3.70
2022-07-29T15:42:58.410Z,3.47
2022-07-29T15:45:31.738Z,3.78
2022-07-29T15:48:01.137Z,3.20
2022-07-29T15:50:29.071Z,3.30
2022-07-29T15:52:57.041Z,3.60
2022-07-29T15:55:25.338Z,4.00
2022-07-29T15:57:56.158Z,3.08
2022-07-29T16:00:29.491Z,3.65
2022-07-29T16:02:57.504Z,4.10
2022-07-29T16:05:25.536Z,3.58
2022-07-29T16:07:53.928Z,3.55
2022-07-29T16:10:22.094Z,4.05
2022-07-29T16:12:49.980Z,4.10
2022-07-29T16:15:17.878Z,3.97
2022-07-29T16:17:47.165Z,4.10
2022-07-29T16:20:15.074Z,5.25
2022-07-29T16:22:43.203Z,5.05
2022-07-29T16:25:11.287Z,4.63
2022-07-29T16:27:39.271Z,4.70
2022-07-29T16:30:09.957Z,4.60
2022-07-29T16:32:38.225Z,4.90
2022-07-29T16:35:09.957Z,5.25
2022-07-29T16:37:38.312Z,4.50
2022-07-29T16:40:11.519Z,4.28
2022-07-29T16:42:47.746Z,3.97
2022-07-29T16:45:16.322Z,4.20
2022-07-29T16:47:45.993Z,3.90
2022-07-29T16:50:15.235Z,3.53
2022-07-29T16:52:43.135Z,4.13
2022-07-29T16:55:11.137Z,3.40
2022-07-29T16:57:39.043Z,3.07
2022-07-29T17:00:08.226Z,5.27
2022-07-29T17:02:37.392Z,3.67
2022-07-29T17:05:06.346Z,3.83
2022-07-29T17:07:35.871Z,7.10
2022-07-29T17:10:05.130Z,3.50
2022-07-29T17:12:33.518Z,4.07
2022-07-29T17:15:01.549Z,2.57
2022-07-29T17:17:38.728Z,3.47
2022-07-29T17:20:17.831Z,3.77
2022-07-29T17:22:47.081Z,3.67
2022-07-29T17:25:20.597Z,4.20
2022-07-29T17:27:49.486Z,3.83
2022-07-29T17:30:17.597Z,4.20
2022-07-29T17:32:45.501Z,2.97
2022-07-29T17:35:31.247Z,3.57
2022-07-29T17:38:00.570Z,3.33
2022-07-29T17:40:29.205Z,3.07
2022-07-29T17:42:57.342Z,3.00
2022-07-29T17:45:25.257Z,2.40
2022-07-29T17:47:53.227Z,3.17
2022-07-29T17:50:21.107Z,3.30
2022-07-29T17:52:49.014Z,4.00
2022-07-29T17:55:18.575Z,4.17
2022-07-29T17:57:46.490Z,3.17
2022-07-29T18:00:17.332Z,2.50
2022-07-29T18:02:45.346Z,3.07
2022-07-29T18:05:13.651Z,2.90
2022-07-29T18:07:44.645Z,2.90
2022-07-29T18:10:12.561Z,2.90
2022-07-29T18:12:41.844Z,2.73
2022-07-29T18:15:10.392Z,2.97
2022-07-29T18:17:56.790Z,2.97
2022-07-29T18:20:26.151Z,2.30
2022-07-29T18:22:54.279Z,3.27
2022-07-29T18:25:22.556Z,2.90
2022-07-29T18:27:52.279Z,3.03
2022-07-29T18:30:20.466Z,3.10
2022-07-29T18:33:18.137Z,3.73
2022-07-29T18:35:37.499Z,3.23
2022-07-29T18:38:06.035Z,3.10
2022-07-29T18:40:34.256Z,2.80
2022-07-29T18:43:03.639Z,2.27
2022-07-29T18:45:31.537Z,2.87
2022-07-29T18:48:01.099Z,3.10
2022-07-29T18:50:30.091Z,3.33
2022-07-29T18:53:01.122Z,2.87
2022-07-29T18:55:29.108Z,3.00
2022-07-29T18:57:57.664Z,2.97
2022-07-29T19:00:28.578Z,3.67
2022-07-29T19:02:57.316Z,3.10
2022-07-29T19:05:25.574Z,3.13
2022-07-29T19:07:54.794Z,3.13
2022-07-29T19:10:23.491Z,3.57
2022-07-29T19:12:52.055Z,2.87
2022-07-29T19:15:20.705Z,3.33
2022-07-29T19:17:50.890Z,3.37
2022-07-29T19:20:19.056Z,3.60
2022-07-29T19:22:47.573Z,4.00
2022-07-29T19:25:15.702Z,3.63
2022-07-29T19:27:43.780Z,3.73
2022-07-29T19:30:12.881Z,3.83
2022-07-29T19:32:41.048Z,3.30
2022-07-29T19:35:28.733Z,3.90
2022-07-29T19:37:58.374Z,3.60
2022-07-29T19:40:27.865Z,3.70
2022-07-29T19:42:57.064Z,4.00
2022-07-29T19:45:26.136Z,4.40
2022-07-29T19:47:59.071Z,3.80
2022-07-29T19:50:30.894Z,3.93
2022-07-29T19:52:59.789Z,3.43
2022-07-29T19:55:28.231Z,3.53
2022-07-29T19:57:56.485Z,3.60
2022-07-29T20:00:25.917Z,3.97
2022-07-29T20:02:53.993Z,5.30
2022-07-29T20:05:21.987Z,4.83
2022-07-29T20:07:57.729Z,5.13
2022-07-29T20:10:26.053Z,4.77
2022-07-29T20:12:55.174Z,5.00
2022-07-29T20:15:23.446Z,5.37
2022-07-29T20:17:56.612Z,4.50
2022-07-29T20:20:26.008Z,5.53
2022-07-29T20:22:54.263Z,5.10
2022-07-29T20:25:24.002Z,4.70
2022-07-29T20:27:52.491Z,4.80
2022-07-29T20:30:21.170Z,5.03
2022-07-29T20:32:49.219Z,5.83
2022-07-29T20:35:17.139Z,5.73
2022-07-29T20:37:56.202Z,5.47
2022-07-29T20:40:26.364Z,6.30
2022-07-29T20:42:54.446Z,5.70
2022-07-29T20:45:23.675Z,6.00
2022-07-29T20:47:52.298Z,5.27
2022-07-29T20:50:23.667Z,6.00
2022-07-29T20:52:52.901Z,5.47
2022-07-29T20:55:20.934Z,5.93
2022-07-29T20:57:50.223Z,6.30
2022-07-29T21:00:18.321Z,5.63
2022-07-29T21:02:47.275Z,6.63
2022-07-29T21:05:15.389Z,5.87
2022-07-29T21:07:43.252Z,6.70
2022-07-29T21:10:11.508Z,6.70
2022-07-29T21:12:39.427Z,6.33
2022-07-29T21:15:13.361Z,6.93
2022-07-29T21:17:46.638Z,5.93
2022-07-29T21:20:15.246Z,5.23
2022-07-29T21:22:43.122Z,5.17
2022-07-29T21:25:11.739Z,6.20
2022-07-29T21:27:57.300Z,5.73
2022-07-29T21:30:26.537Z,6.63
2022-07-29T21:32:54.436Z,7.17
2022-07-29T21:35:45.373Z,5.50
2022-07-29T21:38:10.179Z,5.77
2022-07-29T21:40:38.090Z,5.80
2022-07-29T21:43:06.006Z,5.77
2022-07-29T21:45:35.275Z,5.83
2022-07-29T21:48:03.183Z,6.43
2022-07-29T21:50:31.041Z,5.47
2022-07-29T21:52:58.960Z,5.93
2022-07-29T21:55:27.567Z,6.20
2022-07-29T21:57:57.685Z,5.30
2022-07-29T22:00:26.534Z,5.07
2022-07-29T22:02:56.098Z,4.80
2022-07-29T22:05:24.107Z,5.30
2022-07-29T22:07:54.273Z,5.50
2022-07-29T22:10:24.797Z,7.17
2022-07-29T22:12:53.416Z,6.60
2022-07-29T22:15:21.881Z,6.77
2022-07-29T22:17:49.858Z,4.97
2022-07-29T22:20:19.524Z,4.93
2022-07-29T22:22:48.151Z,5.83
2022-07-29T22:25:16.427Z,5.33
2022-07-29T22:27:44.733Z,6.03
2022-07-29T22:30:13.005Z,6.10
2022-07-29T22:32:41.166Z,5.70
2022-07-29T22:35:09.265Z,5.40
2022-07-29T22:37:39.121Z,5.30
2022-07-29T22:40:08.448Z,6.80
2022-07-29T22:42:36.322Z,6.23
2022-07-29T22:45:10.257Z,6.70
2022-07-29T22:47:46.382Z,7.20
2022-07-29T22:50:17.613Z,6.50
2022-07-29T22:52:47.298Z,7.33
2022-07-29T22:55:15.829Z,6.37
2022-07-29T22:57:43.987Z,6.73
2022-07-29T23:00:14.161Z,5.97
2022-07-29T23:02:42.082Z,6.30
2022-07-29T23:05:11.214Z,6.60
2022-07-29T23:07:39.409Z,6.53
2022-07-29T23:10:09.798Z,6.23
2022-07-29T23:12:37.850Z,7.93
2022-07-29T23:15:06.145Z,7.63
2022-07-29T23:17:36.027Z,7.80
2022-07-29T23:20:06.715Z,7.00
2022-07-29T23:22:34.789Z,6.80
2022-07-29T23:25:02.765Z,6.67
2022-07-29T23:27:32.184Z,8.07
2022-07-29T23:30:00.033Z,7.53
2022-07-29T23:32:28.094Z,7.73
2022-07-29T23:34:55.955Z,8.10
2022-07-29T23:37:23.905Z,7.60
2022-07-29T23:39:55.199Z,8.00
2022-07-29T23:42:23.215Z,8.70
2022-07-29T23:44:53.058Z,8.73
2022-07-29T23:47:21.249Z,7.83
2022-07-29T23:49:50.075Z,8.17
2022-07-29T23:52:18.479Z,7.47
2022-07-29T23:54:46.359Z,7.47
2022-07-29T23:57:14.306Z,8.30
2022-07-29T23:59:42.592Z,7.50
